sensor_id;sensor_type;location;lat;lon;timestamp;temperature;humidity
22065;DHT22;11197;53.110;8.468;2023-02-26T00:01:21;1.10;99.90
22065;DHT22;11197;53.110;8.468;2023-02-26T00:03:55;1.10;99.90
22065;DHT22;11197;53.110;8.468;2023-02-26T00:06:24;1.10;99.90
22065;DHT22;11197;53.110;8.468;2023-02-26T00:08:50;1.00;99.90
22065;DHT22;11197;53.110;8.468;2023-02-26T00:11:16;1.00;99.90
22065;DHT22;11197;53.110;8.468;2023-02-26T00:13:43;1.00;99.90
22065;DHT22;11197;53.110;8.468;2023-02-26T00:16:33;1.00;99.90
22065;DHT22;11197;53.110;8.468;2023-02-26T00:19:02;1.00;99.90
22065;DHT22;11197;53.110;8.468;2023-02-26T00:21:30;1.10;99.90
22065;DHT22;11197;53.110;8.468;2023-02-26T00:23:56;1.00;99.90
22065;DHT22;11197;53.110;8.468;2023-02-26T00:26:24;1.00;99.90
22065;DHT22;11197;53.110;8.468;2023-02-26T00:28:51;1.00;99.90
22065;DHT22;11197;53.110;8.468;2023-02-26T00:31:18;1.00;99.90
22065;DHT22;11197;53.110;8.468;2023-02-26T00:33:46;1.00;99.90
22065;DHT22;11197;53.110;8.468;2023-02-26T00:41:32;1.00;99.90
22065;DHT22;11197;53.110;8.468;2023-02-26T00:43:58;0.90;99.90
22065;DHT22;11197;53.110;8.468;2023-02-26T00:49:18;0.90;99.90
22065;DHT22;11197;53.110;8.468;2023-02-26T00:51:52;0.90;99.90
22065;DHT22;11197;53.110;8.468;2023-02-26T00:54:22;0.90;99.90
22065;DHT22;11197;53.110;8.468;2023-02-26T00:56:51;0.90;99.90
22065;DHT22;11197;53.110;8.468;2023-02-26T00:59:18;0.90;99.90
22065;DHT22;11197;53.110;8.468;2023-02-26T01:01:45;1.00;99.90
22065;DHT22;11197;53.110;8.468;2023-02-26T01:04:14;1.10;99.90
22065;DHT22;11197;53.110;8.468;2023-02-26T01:06:54;1.10;99.90
22065;DHT22;11197;53.110;8.468;2023-02-26T01:09:25;1.10;99.90
22065;DHT22;11197;53.110;8.468;2023-02-26T01:11:52;1.00;99.90
22065;DHT22;11197;53.110;8.468;2023-02-26T01:14:19;1.00;99.90
22065;DHT22;11197;53.110;8.468;2023-02-26T01:22:29;0.80;99.90
22065;DHT22;11197;53.110;8.468;2023-02-26T01:25:04;0.80;99.90
22065;DHT22;11197;53.110;8.468;2023-02-26T01:27:30;0.80;99.90
22065;DHT22;11197;53.110;8.468;2023-02-26T01:29:56;0.70;99.90
22065;DHT22;11197;53.110;8.468;2023-02-26T01:34:58;0.70;99.90
22065;DHT22;11197;53.110;8.468;2023-02-26T01:37:46;0.70;99.90
22065;DHT22;11197;53.110;8.468;2023-02-26T01:43:13;0.60;99.90
22065;DHT22;11197;53.110;8.468;2023-02-26T01:47:01;0.60;99.90
22065;DHT22;11197;53.110;8.468;2023-02-26T01:48:56;0.60;99.90
22065;DHT22;11197;53.110;8.468;2023-02-26T01:51:45;0.60;99.90
22065;DHT22;11197;53.110;8.468;2023-02-26T01:54:13;0.60;99.90
22065;DHT22;11197;53.110;8.468;2023-02-26T01:56:40;0.50;99.90
22065;DHT22;11197;53.110;8.468;2023-02-26T01:59:09;0.50;99.90
22065;DHT22;11197;53.110;8.468;2023-02-26T02:01:37;0.50;99.90
22065;DHT22;11197;53.110;8.468;2023-02-26T02:04:05;0.50;99.90
22065;DHT22;11197;53.110;8.468;2023-02-26T02:06:33;0.50;99.90
22065;DHT22;11197;53.110;8.468;2023-02-26T02:09:01;0.50;99.90
22065;DHT22;11197;53.110;8.468;2023-02-26T02:11:27;0.50;99.90
22065;DHT22;11197;53.110;8.468;2023-02-26T02:14:12;0.60;99.90
22065;DHT22;11197;53.110;8.468;2023-02-26T02:16:52;0.50;99.90
22065;DHT22;11197;53.110;8.468;2023-02-26T02:36:33;0.40;99.90
22065;DHT22;11197;53.110;8.468;2023-02-26T02:39:18;0.40;99.90
22065;DHT22;11197;53.110;8.468;2023-02-26T02:42:06;0.50;99.90
22065;DHT22;11197;53.110;8.468;2023-02-26T02:44:38;0.40;99.90
22065;DHT22;11197;53.110;8.468;2023-02-26T02:47:09;0.40;99.90
22065;DHT22;11197;53.110;8.468;2023-02-26T02:49:48;0.40;99.90
22065;DHT22;11197;53.110;8.468;2023-02-26T02:52:36;0.40;99.90
22065;DHT22;11197;53.110;8.468;2023-02-26T02:55:17;0.40;99.90
22065;DHT22;11197;53.110;8.468;2023-02-26T02:58:11;0.40;99.90
22065;DHT22;11197;53.110;8.468;2023-02-26T03:00:40;0.30;99.90
22065;DHT22;11197;53.110;8.468;2023-02-26T03:03:53;0.30;99.90
22065;DHT22;11197;53.110;8.468;2023-02-26T03:05:58;0.30;99.90
22065;DHT22;11197;53.110;8.468;2023-02-26T03:08:27;0.30;99.90
22065;DHT22;11197;53.110;8.468;2023-02-26T03:10:55;0.40;99.90
22065;DHT22;11197;53.110;8.468;2023-02-26T03:13:23;0.40;99.90
22065;DHT22;11197;53.110;8.468;2023-02-26T03:21:33;0.30;99.90
22065;DHT22;11197;53.110;8.468;2023-02-26T03:24:13;0.30;99.90
22065;DHT22;11197;53.110;8.468;2023-02-26T03:29:32;0.30;99.90
22065;DHT22;11197;53.110;8.468;2023-02-26T03:32:04;0.30;99.90
22065;DHT22;11197;53.110;8.468;2023-02-26T03:34:40;0.30;99.90
22065;DHT22;11197;53.110;8.468;2023-02-26T03:37:25;0.30;99.90
22065;DHT22;11197;53.110;8.468;2023-02-26T03:39:55;0.30;99.90
22065;DHT22;11197;53.110;8.468;2023-02-26T03:42:48;0.80;99.90
22065;DHT22;11197;53.110;8.468;2023-02-26T03:45:20;1.00;99.90
22065;DHT22;11197;53.110;8.468;2023-02-26T03:47:50;0.90;99.90
22065;DHT22;11197;53.110;8.468;2023-02-26T03:50:41;0.80;99.90
22065;DHT22;11197;53.110;8.468;2023-02-26T03:53:33;0.70;99.90
22065;DHT22;11197;53.110;8.468;2023-02-26T03:56:24;0.60;99.90
22065;DHT22;11197;53.110;8.468;2023-02-26T03:59:09;0.50;99.90
22065;DHT22;11197;53.110;8.468;2023-02-26T04:02:01;0.50;99.90
22065;DHT22;11197;53.110;8.468;2023-02-26T04:07:12;0.40;99.90
22065;DHT22;11197;53.110;8.468;2023-02-26T04:09:44;0.30;99.90
22065;DHT22;11197;53.110;8.468;2023-02-26T04:12:12;0.30;99.90
22065;DHT22;11197;53.110;8.468;2023-02-26T04:14:42;0.30;99.90
22065;DHT22;11197;53.110;8.468;2023-02-26T04:17:08;0.30;99.90
22065;DHT22;11197;53.110;8.468;2023-02-26T04:19:34;0.30;99.90
22065;DHT22;11197;53.110;8.468;2023-02-26T04:22:00;0.30;99.90
22065;DHT22;11197;53.110;8.468;2023-02-26T04:24:26;0.30;99.90
22065;DHT22;11197;53.110;8.468;2023-02-26T04:26:53;0.20;99.90
22065;DHT22;11197;53.110;8.468;2023-02-26T04:29:21;0.20;99.90
22065;DHT22;11197;53.110;8.468;2023-02-26T04:31:46;0.20;99.90
22065;DHT22;11197;53.110;8.468;2023-02-26T04:34:12;0.20;99.90
22065;DHT22;11197;53.110;8.468;2023-02-26T04:36:39;0.20;99.90
22065;DHT22;11197;53.110;8.468;2023-02-26T04:39:05;0.10;99.90
22065;DHT22;11197;53.110;8.468;2023-02-26T04:41:31;0.10;99.90
22065;DHT22;11197;53.110;8.468;2023-02-26T04:43:57;0.10;99.90
22065;DHT22;11197;53.110;8.468;2023-02-26T04:46:29;0.10;99.90
22065;DHT22;11197;53.110;8.468;2023-02-26T04:48:57;0.10;99.90
22065;DHT22;11197;53.110;8.468;2023-02-26T04:51:23;0.10;99.90
22065;DHT22;11197;53.110;8.468;2023-02-26T04:53:50;0.10;99.90
22065;DHT22;11197;53.110;8.468;2023-02-26T04:56:17;0.10;99.90
22065;DHT22;11197;53.110;8.468;2023-02-26T04:58:44;0.10;99.90
22065;DHT22;11197;53.110;8.468;2023-02-26T05:01:15;0.10;99.90
22065;DHT22;11197;53.110;8.468;2023-02-26T05:03:41;0.10;99.90
22065;DHT22;11197;53.110;8.468;2023-02-26T05:06:07;0.10;99.90
22065;DHT22;11197;53.110;8.468;2023-02-26T05:08:33;0.10;99.90
22065;DHT22;11197;53.110;8.468;2023-02-26T05:10:59;0.10;99.90
22065;DHT22;11197;53.110;8.468;2023-02-26T05:13:24;0.10;99.90
22065;DHT22;11197;53.110;8.468;2023-02-26T05:15:53;0.10;99.90
22065;DHT22;11197;53.110;8.468;2023-02-26T05:18:19;0.00;99.90
22065;DHT22;11197;53.110;8.468;2023-02-26T05:20:51;0.00;99.90
22065;DHT22;11197;53.110;8.468;2023-02-26T05:23:17;0.00;99.90
22065;DHT22;11197;53.110;8.468;2023-02-26T05:25:43;0.00;99.90
22065;DHT22;11197;53.110;8.468;2023-02-26T05:28:09;-0.10;99.90
22065;DHT22;11197;53.110;8.468;2023-02-26T05:30:35;-0.10;99.90
22065;DHT22;11197;53.110;8.468;2023-02-26T05:33:01;-0.10;99.90
22065;DHT22;11197;53.110;8.468;2023-02-26T05:35:26;-0.10;99.90
22065;DHT22;11197;53.110;8.468;2023-02-26T05:37:52;0.00;99.90
22065;DHT22;11197;53.110;8.468;2023-02-26T05:40:18;-0.10;99.90
22065;DHT22;11197;53.110;8.468;2023-02-26T05:42:44;-0.10;99.90
22065;DHT22;11197;53.110;8.468;2023-02-26T05:45:10;-0.10;99.90
22065;DHT22;11197;53.110;8.468;2023-02-26T05:47:36;-0.10;99.90
22065;DHT22;11197;53.110;8.468;2023-02-26T05:50:03;-0.10;99.90
22065;DHT22;11197;53.110;8.468;2023-02-26T05:52:29;-0.10;99.90
22065;DHT22;11197;53.110;8.468;2023-02-26T05:54:54;-0.10;99.90
22065;DHT22;11197;53.110;8.468;2023-02-26T05:57:21;-0.10;99.90
22065;DHT22;11197;53.110;8.468;2023-02-26T05:59:46;-0.10;99.90
22065;DHT22;11197;53.110;8.468;2023-02-26T06:02:12;-0.10;99.90
22065;DHT22;11197;53.110;8.468;2023-02-26T06:04:39;-0.10;99.90
22065;DHT22;11197;53.110;8.468;2023-02-26T06:07:05;-0.10;99.90
22065;DHT22;11197;53.110;8.468;2023-02-26T06:09:33;-0.10;99.90
22065;DHT22;11197;53.110;8.468;2023-02-26T06:11:59;-0.20;99.90
22065;DHT22;11197;53.110;8.468;2023-02-26T06:14:25;-0.10;99.90
22065;DHT22;11197;53.110;8.468;2023-02-26T06:16:51;-0.20;99.90
22065;DHT22;11197;53.110;8.468;2023-02-26T06:19:17;-0.20;99.90
22065;DHT22;11197;53.110;8.468;2023-02-26T06:21:46;-0.20;99.90
22065;DHT22;11197;53.110;8.468;2023-02-26T06:24:11;-0.20;99.90
22065;DHT22;11197;53.110;8.468;2023-02-26T06:26:37;-0.20;99.90
22065;DHT22;11197;53.110;8.468;2023-02-26T06:29:03;-0.20;99.90
22065;DHT22;11197;53.110;8.468;2023-02-26T06:31:29;-0.20;99.90
22065;DHT22;11197;53.110;8.468;2023-02-26T06:33:55;-0.20;99.90
22065;DHT22;11197;53.110;8.468;2023-02-26T06:36:21;-0.20;99.90
22065;DHT22;11197;53.110;8.468;2023-02-26T06:38:47;-0.20;99.90
22065;DHT22;11197;53.110;8.468;2023-02-26T06:41:13;-0.20;99.90
22065;DHT22;11197;53.110;8.468;2023-02-26T06:43:39;-0.20;99.90
22065;DHT22;11197;53.110;8.468;2023-02-26T06:46:05;-0.20;99.90
22065;DHT22;11197;53.110;8.468;2023-02-26T06:48:31;-0.20;99.90
22065;DHT22;11197;53.110;8.468;2023-02-26T06:50:56;-0.20;99.90
22065;DHT22;11197;53.110;8.468;2023-02-26T06:53:22;-0.20;99.90
22065;DHT22;11197;53.110;8.468;2023-02-26T06:55:50;-0.20;99.90
22065;DHT22;11197;53.110;8.468;2023-02-26T06:58:18;-0.20;99.90
22065;DHT22;11197;53.110;8.468;2023-02-26T07:00:44;-0.20;99.90
22065;DHT22;11197;53.110;8.468;2023-02-26T07:03:15;-0.20;99.90
22065;DHT22;11197;53.110;8.468;2023-02-26T07:05:41;-0.10;99.90
22065;DHT22;11197;53.110;8.468;2023-02-26T07:08:07;-0.20;99.90
22065;DHT22;11197;53.110;8.468;2023-02-26T07:10:35;-0.20;99.90
22065;DHT22;11197;53.110;8.468;2023-02-26T07:13:01;-0.20;99.90
22065;DHT22;11197;53.110;8.468;2023-02-26T07:15:28;-0.20;99.90
22065;DHT22;11197;53.110;8.468;2023-02-26T07:17:54;-0.20;99.90
22065;DHT22;11197;53.110;8.468;2023-02-26T07:20:20;-0.10;99.90
22065;DHT22;11197;53.110;8.468;2023-02-26T07:22:47;-0.10;99.90
22065;DHT22;11197;53.110;8.468;2023-02-26T07:25:13;-0.10;99.90
22065;DHT22;11197;53.110;8.468;2023-02-26T07:27:43;-0.10;99.90
22065;DHT22;11197;53.110;8.468;2023-02-26T07:30:09;-0.10;99.90
22065;DHT22;11197;53.110;8.468;2023-02-26T07:32:35;0.00;99.90
22065;DHT22;11197;53.110;8.468;2023-02-26T07:35:01;0.00;99.90
22065;DHT22;11197;53.110;8.468;2023-02-26T07:37:27;0.00;99.90
22065;DHT22;11197;53.110;8.468;2023-02-26T07:39:54;0.00;99.90
22065;DHT22;11197;53.110;8.468;2023-02-26T07:42:23;0.00;99.90
22065;DHT22;11197;53.110;8.468;2023-02-26T07:44:51;0.10;99.90
22065;DHT22;11197;53.110;8.468;2023-02-26T07:47:17;0.10;99.90
22065;DHT22;11197;53.110;8.468;2023-02-26T07:49:43;0.10;99.90
22065;DHT22;11197;53.110;8.468;2023-02-26T07:52:09;0.10;99.90
22065;DHT22;11197;53.110;8.468;2023-02-26T07:54:36;0.10;99.90
22065;DHT22;11197;53.110;8.468;2023-02-26T07:57:02;0.20;99.90
22065;DHT22;11197;53.110;8.468;2023-02-26T07:59:29;0.20;99.90
22065;DHT22;11197;53.110;8.468;2023-02-26T08:01:55;0.20;99.90
22065;DHT22;11197;53.110;8.468;2023-02-26T08:04:20;0.30;99.90
22065;DHT22;11197;53.110;8.468;2023-02-26T08:06:46;0.30;99.90
22065;DHT22;11197;53.110;8.468;2023-02-26T08:09:12;0.40;99.90
22065;DHT22;11197;53.110;8.468;2023-02-26T08:11:38;0.40;99.90
22065;DHT22;11197;53.110;8.468;2023-02-26T08:14:07;0.40;99.90
22065;DHT22;11197;53.110;8.468;2023-02-26T08:16:33;0.50;99.90
22065;DHT22;11197;53.110;8.468;2023-02-26T08:18:59;0.50;99.90
22065;DHT22;11197;53.110;8.468;2023-02-26T08:21:25;0.60;99.90
22065;DHT22;11197;53.110;8.468;2023-02-26T08:23:51;0.60;99.90
22065;DHT22;11197;53.110;8.468;2023-02-26T08:26:17;0.60;99.90
22065;DHT22;11197;53.110;8.468;2023-02-26T08:28:43;0.70;99.90
22065;DHT22;11197;53.110;8.468;2023-02-26T08:31:11;0.80;99.90
22065;DHT22;11197;53.110;8.468;2023-02-26T08:33:38;0.80;99.90
22065;DHT22;11197;53.110;8.468;2023-02-26T08:36:05;0.90;99.90
22065;DHT22;11197;53.110;8.468;2023-02-26T08:38:31;0.90;99.90
22065;DHT22;11197;53.110;8.468;2023-02-26T08:40:57;1.00;99.90
22065;DHT22;11197;53.110;8.468;2023-02-26T08:43:24;1.50;99.90
22065;DHT22;11197;53.110;8.468;2023-02-26T08:45:55;1.70;99.90
22065;DHT22;11197;53.110;8.468;2023-02-26T08:48:22;1.70;99.90
22065;DHT22;11197;53.110;8.468;2023-02-26T08:50:48;1.70;99.90
22065;DHT22;11197;53.110;8.468;2023-02-26T08:53:14;1.60;99.90
22065;DHT22;11197;53.110;8.468;2023-02-26T08:55:40;1.60;99.90
22065;DHT22;11197;53.110;8.468;2023-02-26T08:58:20;1.50;99.90
22065;DHT22;11197;53.110;8.468;2023-02-26T09:00:52;1.50;99.90
22065;DHT22;11197;53.110;8.468;2023-02-26T09:03:18;1.50;99.90
22065;DHT22;11197;53.110;8.468;2023-02-26T09:05:44;1.50;99.90
22065;DHT22;11197;53.110;8.468;2023-02-26T09:08:13;1.50;99.90
22065;DHT22;11197;53.110;8.468;2023-02-26T09:10:40;1.60;99.90
22065;DHT22;11197;53.110;8.468;2023-02-26T09:13:10;1.60;99.90
22065;DHT22;11197;53.110;8.468;2023-02-26T09:15:42;1.60;99.90
22065;DHT22;11197;53.110;8.468;2023-02-26T09:18:13;1.60;99.90
22065;DHT22;11197;53.110;8.468;2023-02-26T09:20:42;1.60;99.90
22065;DHT22;11197;53.110;8.468;2023-02-26T09:23:08;1.70;99.90
22065;DHT22;11197;53.110;8.468;2023-02-26T09:25:34;1.70;99.90
22065;DHT22;11197;53.110;8.468;2023-02-26T09:28:01;1.70;99.90
22065;DHT22;11197;53.110;8.468;2023-02-26T09:30:27;1.80;99.90
22065;DHT22;11197;53.110;8.468;2023-02-26T09:32:54;1.90;99.90
22065;DHT22;11197;53.110;8.468;2023-02-26T09:35:23;1.90;99.90
22065;DHT22;11197;53.110;8.468;2023-02-26T09:37:50;1.90;99.90
22065;DHT22;11197;53.110;8.468;2023-02-26T09:40:43;1.90;99.90
22065;DHT22;11197;53.110;8.468;2023-02-26T09:45:47;1.90;99.90
22065;DHT22;11197;53.110;8.468;2023-02-26T09:48:17;2.00;99.90
22065;DHT22;11197;53.110;8.468;2023-02-26T09:50:47;2.00;99.90
22065;DHT22;11197;53.110;8.468;2023-02-26T09:53:25;2.10;99.90
22065;DHT22;11197;53.110;8.468;2023-02-26T09:55:58;2.10;99.90
22065;DHT22;11197;53.110;8.468;2023-02-26T09:58:33;2.20;99.90
22065;DHT22;11197;53.110;8.468;2023-02-26T10:03:53;2.30;99.90
22065;DHT22;11197;53.110;8.468;2023-02-26T10:06:50;2.30;99.90
22065;DHT22;11197;53.110;8.468;2023-02-26T10:09:43;2.40;99.90
22065;DHT22;11197;53.110;8.468;2023-02-26T10:19:47;2.60;99.90
22065;DHT22;11197;53.110;8.468;2023-02-26T10:22:35;2.60;99.90
22065;DHT22;11197;53.110;8.468;2023-02-26T10:25:29;2.70;99.90
22065;DHT22;11197;53.110;8.468;2023-02-26T10:28:05;2.60;99.90
22065;DHT22;11197;53.110;8.468;2023-02-26T10:36:29;2.80;99.90
22065;DHT22;11197;53.110;8.468;2023-02-26T10:39:01;2.90;99.90
22065;DHT22;11197;53.110;8.468;2023-02-26T10:41:33;2.90;99.90
22065;DHT22;11197;53.110;8.468;2023-02-26T10:46:47;2.90;99.90
22065;DHT22;11197;53.110;8.468;2023-02-26T10:52:16;3.10;99.90
22065;DHT22;11197;53.110;8.468;2023-02-26T10:55:24;3.20;99.90
22065;DHT22;11197;53.110;8.468;2023-02-26T11:00:30;3.20;99.90
22065;DHT22;11197;53.110;8.468;2023-02-26T11:03:00;3.20;99.90
22065;DHT22;11197;53.110;8.468;2023-02-26T11:05:32;3.30;99.90
22065;DHT22;11197;53.110;8.468;2023-02-26T11:08:04;3.30;99.90
22065;DHT22;11197;53.110;8.468;2023-02-26T11:13:17;3.30;99.90
22065;DHT22;11197;53.110;8.468;2023-02-26T11:15:49;3.30;99.90
22065;DHT22;11197;53.110;8.468;2023-02-26T11:21:04;3.30;99.90
22065;DHT22;11197;53.110;8.468;2023-02-26T11:23:33;3.30;99.90
22065;DHT22;11197;53.110;8.468;2023-02-26T11:26:06;3.30;99.90
22065;DHT22;11197;53.110;8.468;2023-02-26T11:28:43;3.30;99.90
22065;DHT22;11197;53.110;8.468;2023-02-26T11:31:11;3.30;99.90
22065;DHT22;11197;53.110;8.468;2023-02-26T11:33:43;3.20;99.90
22065;DHT22;11197;53.110;8.468;2023-02-26T11:36:21;3.30;99.90
22065;DHT22;11197;53.110;8.468;2023-02-26T11:39:04;3.30;99.90
22065;DHT22;11197;53.110;8.468;2023-02-26T11:41:36;3.30;99.90
22065;DHT22;11197;53.110;8.468;2023-02-26T11:44:13;3.30;99.90
22065;DHT22;11197;53.110;8.468;2023-02-26T11:46:55;3.30;99.90
22065;DHT22;11197;53.110;8.468;2023-02-26T11:49:28;3.30;99.90
22065;DHT22;11197;53.110;8.468;2023-02-26T11:52:14;3.30;99.90
22065;DHT22;11197;53.110;8.468;2023-02-26T11:54:43;3.30;99.90
22065;DHT22;11197;53.110;8.468;2023-02-26T11:57:19;3.30;99.90
22065;DHT22;11197;53.110;8.468;2023-02-26T11:59:50;3.30;99.90
22065;DHT22;11197;53.110;8.468;2023-02-26T12:02:26;3.40;99.90
22065;DHT22;11197;53.110;8.468;2023-02-26T12:04:58;3.50;99.90
22065;DHT22;11197;53.110;8.468;2023-02-26T12:07:25;3.50;99.90
22065;DHT22;11197;53.110;8.468;2023-02-26T12:09:52;3.60;99.90
22065;DHT22;11197;53.110;8.468;2023-02-26T12:15:33;3.70;99.90
22065;DHT22;11197;53.110;8.468;2023-02-26T12:28:45;3.70;99.90
22065;DHT22;11197;53.110;8.468;2023-02-26T12:31:26;3.70;99.90
22065;DHT22;11197;53.110;8.468;2023-02-26T12:34:43;3.70;99.90
22065;DHT22;11197;53.110;8.468;2023-02-26T12:52:06;4.00;99.90
22065;DHT22;11197;53.110;8.468;2023-02-26T13:08:59;4.10;99.90
22065;DHT22;11197;53.110;8.468;2023-02-26T13:11:48;4.10;99.90
22065;DHT22;11197;53.110;8.468;2023-02-26T13:14:35;4.20;99.90
22065;DHT22;11197;53.110;8.468;2023-02-26T13:17:27;4.20;99.90
22065;DHT22;11197;53.110;8.468;2023-02-26T13:20:00;4.30;99.90
22065;DHT22;11197;53.110;8.468;2023-02-26T13:22:40;4.30;99.90
22065;DHT22;11197;53.110;8.468;2023-02-26T13:25:15;4.40;99.90
22065;DHT22;11197;53.110;8.468;2023-02-26T13:27:47;4.40;99.90
22065;DHT22;11197;53.110;8.468;2023-02-26T13:30:24;4.40;99.90
22065;DHT22;11197;53.110;8.468;2023-02-26T13:32:57;4.50;99.90
22065;DHT22;11197;53.110;8.468;2023-02-26T13:35:31;4.50;99.90
22065;DHT22;11197;53.110;8.468;2023-02-26T13:38:01;4.50;99.90
22065;DHT22;11197;53.110;8.468;2023-02-26T13:48:57;4.50;99.90
22065;DHT22;11197;53.110;8.468;2023-02-26T13:53:58;4.60;99.90
22065;DHT22;11197;53.110;8.468;2023-02-26T13:59:24;4.60;99.90
22065;DHT22;11197;53.110;8.468;2023-02-26T14:01:59;4.60;99.90
22065;DHT22;11197;53.110;8.468;2023-02-26T14:04:31;4.60;99.90
22065;DHT22;11197;53.110;8.468;2023-02-26T14:07:14;4.60;99.90
22065;DHT22;11197;53.110;8.468;2023-02-26T14:10:01;4.60;99.90
22065;DHT22;11197;53.110;8.468;2023-02-26T14:12:37;4.60;99.90
22065;DHT22;11197;53.110;8.468;2023-02-26T14:18:04;4.70;99.90
22065;DHT22;11197;53.110;8.468;2023-02-26T14:20:33;4.70;99.90
22065;DHT22;11197;53.110;8.468;2023-02-26T14:23:10;4.70;99.90
22065;DHT22;11197;53.110;8.468;2023-02-26T14:25:46;4.70;99.90
22065;DHT22;11197;53.110;8.468;2023-02-26T14:33:41;4.60;99.90
22065;DHT22;11197;53.110;8.468;2023-02-26T14:36:17;4.70;99.90
22065;DHT22;11197;53.110;8.468;2023-02-26T14:38:46;4.70;99.90
22065;DHT22;11197;53.110;8.468;2023-02-26T14:41:26;4.70;99.90
22065;DHT22;11197;53.110;8.468;2023-02-26T14:46:34;4.70;99.90
22065;DHT22;11197;53.110;8.468;2023-02-26T14:49:02;4.80;99.90
22065;DHT22;11197;53.110;8.468;2023-02-26T15:05:09;4.90;99.90
22065;DHT22;11197;53.110;8.468;2023-02-26T15:10:38;4.90;99.90
22065;DHT22;11197;53.110;8.468;2023-02-26T15:15:58;5.00;99.90
22065;DHT22;11197;53.110;8.468;2023-02-26T15:23:58;5.00;99.90
22065;DHT22;11197;53.110;8.468;2023-02-26T15:26:28;5.00;99.90
22065;DHT22;11197;53.110;8.468;2023-02-26T15:28:56;5.00;99.90
22065;DHT22;11197;53.110;8.468;2023-02-26T15:31:46;5.00;99.90
22065;DHT22;11197;53.110;8.468;2023-02-26T15:34:18;5.00;99.90
22065;DHT22;11197;53.110;8.468;2023-02-26T15:36:48;5.00;99.90
22065;DHT22;11197;53.110;8.468;2023-02-26T15:39:16;4.90;99.90
22065;DHT22;11197;53.110;8.468;2023-02-26T15:41:46;4.90;99.90
22065;DHT22;11197;53.110;8.468;2023-02-26T15:44:27;4.90;99.90
22065;DHT22;11197;53.110;8.468;2023-02-26T15:47:01;4.90;99.90
22065;DHT22;11197;53.110;8.468;2023-02-26T15:49:40;4.90;99.90
22065;DHT22;11197;53.110;8.468;2023-02-26T15:52:12;4.90;99.90
22065;DHT22;11197;53.110;8.468;2023-02-26T15:54:44;4.90;99.90
22065;DHT22;11197;53.110;8.468;2023-02-26T15:57:15;4.90;99.90
22065;DHT22;11197;53.110;8.468;2023-02-26T15:59:50;4.90;99.90
22065;DHT22;11197;53.110;8.468;2023-02-26T16:02:30;4.90;99.90
22065;DHT22;11197;53.110;8.468;2023-02-26T16:04:56;4.80;99.90
22065;DHT22;11197;53.110;8.468;2023-02-26T16:07:23;4.80;99.90
22065;DHT22;11197;53.110;8.468;2023-02-26T16:09:53;4.80;99.90
22065;DHT22;11197;53.110;8.468;2023-02-26T16:12:21;4.80;99.90
22065;DHT22;11197;53.110;8.468;2023-02-26T16:15:11;4.80;99.90
22065;DHT22;11197;53.110;8.468;2023-02-26T16:17:40;4.80;99.90
22065;DHT22;11197;53.110;8.468;2023-02-26T16:20:19;4.80;99.90
22065;DHT22;11197;53.110;8.468;2023-02-26T16:23:03;4.70;99.90
22065;DHT22;11197;53.110;8.468;2023-02-26T16:25:35;4.70;99.90
22065;DHT22;11197;53.110;8.468;2023-02-26T16:28:18;4.70;99.90
22065;DHT22;11197;53.110;8.468;2023-02-26T16:30:52;4.70;99.90
22065;DHT22;11197;53.110;8.468;2023-02-26T16:33:22;4.60;99.90
22065;DHT22;11197;53.110;8.468;2023-02-26T16:35:54;4.60;99.90
22065;DHT22;11197;53.110;8.468;2023-02-26T16:38:26;4.60;99.90
22065;DHT22;11197;53.110;8.468;2023-02-26T16:41:04;4.60;99.90
22065;DHT22;11197;53.110;8.468;2023-02-26T16:43:49;4.50;99.90
22065;DHT22;11197;53.110;8.468;2023-02-26T16:46:20;4.50;99.90
22065;DHT22;11197;53.110;8.468;2023-02-26T16:48:57;4.40;99.90
22065;DHT22;11197;53.110;8.468;2023-02-26T16:51:26;4.40;99.90
22065;DHT22;11197;53.110;8.468;2023-02-26T16:53:59;4.40;99.90
22065;DHT22;11197;53.110;8.468;2023-02-26T16:56:31;4.30;99.90
22065;DHT22;11197;53.110;8.468;2023-02-26T16:59:10;4.30;99.90
22065;DHT22;11197;53.110;8.468;2023-02-26T17:01:53;4.30;99.90
22065;DHT22;11197;53.110;8.468;2023-02-26T17:04:25;4.30;99.90
22065;DHT22;11197;53.110;8.468;2023-02-26T17:06:56;4.20;99.90
22065;DHT22;11197;53.110;8.468;2023-02-26T17:09:35;4.20;99.90
22065;DHT22;11197;53.110;8.468;2023-02-26T17:12:15;4.20;99.90
22065;DHT22;11197;53.110;8.468;2023-02-26T17:14:57;4.10;99.90
22065;DHT22;11197;53.110;8.468;2023-02-26T17:17:25;4.10;99.90
22065;DHT22;11197;53.110;8.468;2023-02-26T17:19:52;4.00;99.90
22065;DHT22;11197;53.110;8.468;2023-02-26T17:22:25;4.00;99.90
22065;DHT22;11197;53.110;8.468;2023-02-26T17:24:51;4.00;99.90
22065;DHT22;11197;53.110;8.468;2023-02-26T17:27:29;4.00;99.90
22065;DHT22;11197;53.110;8.468;2023-02-26T17:29:57;4.00;99.90
22065;DHT22;11197;53.110;8.468;2023-02-26T17:32:25;3.90;99.90
22065;DHT22;11197;53.110;8.468;2023-02-26T17:34:52;3.90;99.90
22065;DHT22;11197;53.110;8.468;2023-02-26T17:37:19;3.90;99.90
22065;DHT22;11197;53.110;8.468;2023-02-26T17:39:46;3.80;99.90
22065;DHT22;11197;53.110;8.468;2023-02-26T17:42:17;3.80;99.90
22065;DHT22;11197;53.110;8.468;2023-02-26T17:44:48;3.80;99.90
22065;DHT22;11197;53.110;8.468;2023-02-26T17:47:17;3.70;99.90
22065;DHT22;11197;53.110;8.468;2023-02-26T17:49:44;3.70;99.90
22065;DHT22;11197;53.110;8.468;2023-02-26T17:52:10;3.70;99.90
22065;DHT22;11197;53.110;8.468;2023-02-26T17:54:36;3.70;99.90
22065;DHT22;11197;53.110;8.468;2023-02-26T17:57:02;3.70;99.90
22065;DHT22;11197;53.110;8.468;2023-02-26T17:59:28;3.70;99.90
22065;DHT22;11197;53.110;8.468;2023-02-26T18:01:54;3.70;99.90
22065;DHT22;11197;53.110;8.468;2023-02-26T18:04:20;3.70;99.90
22065;DHT22;11197;53.110;8.468;2023-02-26T18:06:47;3.60;99.90
22065;DHT22;11197;53.110;8.468;2023-02-26T18:09:14;3.60;99.90
22065;DHT22;11197;53.110;8.468;2023-02-26T18:11:41;3.60;99.90
22065;DHT22;11197;53.110;8.468;2023-02-26T18:14:08;3.60;99.90
22065;DHT22;11197;53.110;8.468;2023-02-26T18:16:40;3.60;99.90
22065;DHT22;11197;53.110;8.468;2023-02-26T18:19:07;3.60;99.90
22065;DHT22;11197;53.110;8.468;2023-02-26T18:21:33;3.50;99.90
22065;DHT22;11197;53.110;8.468;2023-02-26T18:24:03;3.60;99.90
22065;DHT22;11197;53.110;8.468;2023-02-26T18:26:31;3.50;99.90
22065;DHT22;11197;53.110;8.468;2023-02-26T18:28:57;3.50;99.90
22065;DHT22;11197;53.110;8.468;2023-02-26T18:31:24;3.50;99.90
22065;DHT22;11197;53.110;8.468;2023-02-26T18:33:58;3.50;99.90
22065;DHT22;11197;53.110;8.468;2023-02-26T18:36:30;3.50;99.90
22065;DHT22;11197;53.110;8.468;2023-02-26T18:39:09;3.50;99.90
22065;DHT22;11197;53.110;8.468;2023-02-26T18:41:36;3.40;99.90
22065;DHT22;11197;53.110;8.468;2023-02-26T18:44:02;3.40;99.90
22065;DHT22;11197;53.110;8.468;2023-02-26T18:46:28;3.40;99.90
22065;DHT22;11197;53.110;8.468;2023-02-26T18:48:55;3.40;99.90
22065;DHT22;11197;53.110;8.468;2023-02-26T18:51:21;3.40;99.90
22065;DHT22;11197;53.110;8.468;2023-02-26T18:53:50;3.30;99.90
22065;DHT22;11197;53.110;8.468;2023-02-26T18:56:16;3.30;99.90
22065;DHT22;11197;53.110;8.468;2023-02-26T18:58:42;3.30;99.90
22065;DHT22;11197;53.110;8.468;2023-02-26T19:01:08;3.30;99.90
22065;DHT22;11197;53.110;8.468;2023-02-26T19:03:38;3.20;99.90